Time;durP1;ratioP1;P1;durP2;ratioP2;P2;SDS_P1;SDS_P2;PMS_P1;PMS_P2;Temp;Humidity;BMP_temperature;BMP_pressure;BME280_temperature;BME280_humidity;BME280_pressure;Samples;Min_cycle;Max_cycle;Signal;HPM_P1;HPM_P2
2023/09/17 00:00:16;;;;;;;24.60;16.08;;;13.70;99.90;;;;;;25594917;23;20005;-54
2023/09/17 00:10:18;;;;;;;18.98;14.20;;;13.80;99.90;;;;;;25594791;23;20055;-59
2023/09/17 00:20:21;;;;;;;17.58;12.05;;;13.90;99.90;;;;;;25594475;23;20005;-55
2023/09/17 00:30:22;;;;;;;14.70;10.63;;;13.90;99.90;;;;;;25593742;23;20063;-59
2023/09/17 00:40:28;;;;;;;15.32;10.95;;;13.90;99.90;;;;;;25593795;23;20159;-59
2023/09/17 00:50:31;;;;;;;15.20;10.00;;;13.80;99.90;;;;;;25634488;23;20024;-59
2023/09/17 01:00:38;;;;;;;14.68;9.80;;;13.90;99.90;;;;;;25592810;23;20409;-59
2023/09/17 01:10:40;;;;;;;13.25;8.93;;;13.90;99.90;;;;;;25633082;23;20012;-59
2023/09/17 01:21:07;;;;;;;12.50;10.35;;;13.70;99.90;;;;;;25591720;23;20001;-59
2023/09/17 01:31:09;;;;;;;14.20;9.68;;;13.70;99.90;;;;;;25610893;23;20091;-59
2023/09/17 01:41:11;;;;;;;11.15;8.55;;;13.80;99.90;;;;;;25590761;23;20028;-54
2023/09/17 01:51:13;;;;;;;11.20;8.80;;;13.70;99.90;;;;;;25564566;23;20017;-59
2023/09/17 02:01:16;;;;;;;11.32;9.43;;;13.70;99.90;;;;;;25590518;23;20392;-59
2023/09/17 02:11:18;;;;;;;15.40;10.27;;;13.60;99.90;;;;;;25563311;23;20012;-59
2023/09/17 02:21:20;;;;;;;11.80;8.13;;;13.80;99.90;;;;;;25589193;23;20083;-59
2023/09/17 02:31:24;;;;;;;12.80;8.15;;;13.80;99.90;;;;;;25588656;23;20088;-59
2023/09/17 02:41:25;;;;;;;10.55;8.00;;;13.60;99.90;;;;;;25588836;23;20009;-59
2023/09/17 02:51:27;;;;;;;10.65;7.80;;;13.60;99.90;;;;;;25588008;23;20108;-59
2023/09/17 03:01:32;;;;;;;8.70;7.20;;;13.50;99.90;;;;;;25561865;23;20009;-59
2023/09/17 03:11:35;;;;;;;12.57;7.57;;;13.40;99.90;;;;;;25586347;23;20056;-59
2023/09/17 03:21:43;;;;;;;11.45;6.80;;;13.30;99.90;;;;;;25561833;23;20005;-59
2023/09/17 03:31:46;;;;;;;14.48;9.45;;;13.30;99.90;;;;;;25604459;23;20008;-59
2023/09/17 03:41:49;;;;;;;12.68;9.05;;;13.40;99.90;;;;;;25586852;23;20376;-59
2023/09/17 03:51:52;;;;;;;12.85;9.63;;;13.90;99.90;;;;;;25560376;23;20036;-53
2023/09/17 04:01:53;;;;;;;15.52;8.40;;;13.80;99.90;;;;;;25587392;23;20004;-50
2023/09/17 04:11:57;;;;;;;14.82;7.20;;;13.80;99.90;;;;;;25592278;23;20005;-59
2023/09/17 04:21:59;;;;;;;11.68;7.63;;;13.60;99.90;;;;;;25593436;23;20036;-59
2023/09/17 04:32:02;;;;;;;8.07;5.50;;;13.80;99.90;;;;;;25567076;23;20008;-59
2023/09/17 04:42:05;;;;;;;11.18;6.32;;;13.50;99.90;;;;;;25566746;23;20020;-60
2023/09/17 04:52:07;;;;;;;12.02;6.40;;;14.00;99.90;;;;;;25566035;23;20013;-60
2023/09/17 05:02:09;;;;;;;19.15;11.05;;;14.00;99.90;;;;;;25565886;23;20392;-60
2023/09/17 05:12:11;;;;;;;24.58;16.70;;;13.70;99.90;;;;;;25591562;23;20083;-59
2023/09/17 05:22:15;;;;;;;28.02;18.10;;;13.50;99.90;;;;;;25565731;23;20005;-60
2023/09/17 05:32:17;;;;;;;21.25;14.02;;;13.70;99.90;;;;;;25590509;23;20349;-59
2023/09/17 05:42:20;;;;;;;25.33;16.67;;;14.00;99.90;;;;;;25539875;23;20001;-59
2023/09/17 05:52:22;;;;;;;18.05;12.15;;;14.10;99.90;;;;;;25589806;23;20008;-55
2023/09/17 06:02:24;;;;;;;19.00;12.20;;;14.10;99.90;;;;;;25587487;23;20005;-59
2023/09/17 06:12:26;;;;;;;26.13;16.92;;;14.30;99.90;;;;;;25587357;23;20055;-60
2023/09/17 06:22:29;;;;;;;30.85;20.48;;;14.70;99.90;;;;;;25562588;23;20328;-59
2023/09/17 06:32:31;;;;;;;26.65;18.17;;;15.10;99.90;;;;;;25561992;23;20510;-59
2023/09/17 06:42:34;;;;;;;24.58;15.40;;;15.50;99.90;;;;;;25561231;23;20510;-60
2023/09/17 06:52:36;;;;;;;16.80;13.15;;;16.20;99.90;;;;;;25587985;23;20507;-60
2023/09/17 07:02:38;;;;;;;19.25;14.88;;;16.70;99.90;;;;;;25587623;23;20428;-62
2023/09/17 07:12:40;;;;;;;18.52;12.95;;;17.40;99.90;;;;;;25587508;23;20056;-57
2023/09/17 07:22:42;;;;;;;16.23;12.15;;;17.70;99.90;;;;;;25587015;23;20013;-61
2023/09/17 07:32:43;;;;;;;16.15;11.48;;;18.60;99.90;;;;;;25586610;23;20306;-56
2023/09/17 07:42:46;;;;;;;15.40;11.95;;;18.90;99.90;;;;;;25592258;23;20005;-61
2023/09/17 07:52:47;;;;;;;13.02;9.75;;;19.70;99.90;;;;;;25594457;23;20341;-56
2023/09/17 08:02:49;;;;;;;16.95;14.02;;;21.70;99.90;;;;;;25593689;23;20511;-61
2023/09/17 08:12:51;;;;;;;15.48;10.88;;;21.90;99.90;;;;;;25593048;23;20024;-61
2023/09/17 08:22:53;;;;;;;12.55;8.75;;;22.00;99.90;;;;;;25593463;23;20056;-60
2023/09/17 08:33:15;;;;;;;15.75;12.05;;;22.90;99.90;;;;;;25593526;23;20095;-61
2023/09/17 08:43:37;;;;;;;17.75;12.55;;;22.90;99.90;;;;;;25592007;23;20070;-54
2023/09/17 08:53:43;;;;;;;17.40;13.50;;;23.10;99.90;;;;;;25591573;23;20091;-62
2023/09/17 09:03:45;;;;;;;14.32;10.90;;;22.90;99.90;;;;;;25631865;23;20032;-60
2023/09/17 09:13:48;;;;;;;13.32;9.93;;;23.50;99.90;;;;;;25565257;23;20001;-61
2023/09/17 09:23:50;;;;;;;12.73;10.05;;;24.50;99.90;;;;;;25590122;23;20001;-60
2023/09/17 09:33:53;;;;;;;14.93;11.20;;;25.00;99.90;;;;;;25589996;23;20012;-60
2023/09/17 09:43:56;;;;;;;58.20;14.82;;;24.30;99.90;;;;;;25590131;23;20001;-60
2023/09/17 09:53:58;;;;;;;20.92;13.98;;;23.30;99.90;;;;;;25589911;23;20324;-56
2023/09/17 10:04:01;;;;;;;13.73;11.45;;;21.40;99.90;;;;;;25589263;23;20001;-59
2023/09/17 10:14:05;;;;;;;18.85;12.52;;;20.70;99.90;;;;;;25589431;23;20055;-60
2023/09/17 10:24:09;;;;;;;16.17;11.75;;;20.80;99.90;;;;;;25588458;23;20331;-59
2023/09/17 10:34:15;;;;;;;18.00;14.32;;;20.10;99.90;;;;;;25587439;23;20063;-59
2023/09/17 10:44:21;;;;;;;22.65;14.80;;;19.70;99.90;;;;;;25628190;23;20013;-59
2023/09/17 10:54:23;;;;;;;27.75;20.55;;;19.50;99.90;;;;;;25628308;23;20450;-59
2023/09/17 11:04:27;;;;;;;31.70;20.23;;;19.20;99.90;;;;;;25587473;23;20009;-61
2023/09/17 11:14:29;;;;;;;22.13;15.98;;;18.60;99.90;;;;;;25515663;23;20088;-59
2023/09/17 11:24:32;;;;;;;19.10;15.00;;;18.90;99.90;;;;;;25595802;23;20009;-59
2023/09/17 11:34:36;;;;;;;23.88;18.80;;;18.90;99.90;;;;;;25595143;23;20666;-59
2023/09/17 11:44:38;;;;;;;24.70;19.73;;;18.60;99.90;;;;;;25594476;23;20009;-59
2023/09/17 11:54:52;;;;;;;26.42;20.13;;;19.10;99.90;;;;;;25594808;23;20036;-59
2023/09/17 12:04:55;;;;;;;28.90;23.25;;;19.10;99.90;;;;;;25635306;23;20517;-58
2023/09/17 12:14:57;;;;;;;28.33;22.33;;;18.90;99.90;;;;;;25593677;23;20397;-59
2023/09/17 12:25:16;;;;;;;33.38;25.70;;;19.10;99.90;;;;;;25593139;23;20067;-60
2023/09/17 12:35:18;;;;;;;29.65;23.50;;;19.60;99.90;;;;;;25592888;23;20043;-59
2023/09/17 12:45:20;;;;;;;32.67;26.02;;;20.70;99.90;;;;;;25592548;23;20080;-59
2023/09/17 12:55:22;;;;;;;36.30;27.63;;;20.60;99.90;;;;;;25591832;23;20333;-59
2023/09/17 13:05:24;;;;;;;35.47;29.88;;;20.10;99.90;;;;;;25591392;23;20415;-59
2023/09/17 13:15:26;;;;;;;34.95;27.20;;;19.60;99.90;;;;;;25591083;23;20017;-59
2023/09/17 13:25:28;;;;;;;41.90;30.90;;;19.20;99.90;;;;;;25590920;23;20024;-55
2023/09/17 13:35:31;;;;;;;43.92;31.83;;;19.10;99.90;;;;;;25589726;23;20013;-58
2023/09/17 13:45:32;;;;;;;37.95;29.38;;;19.10;99.90;;;;;;25589958;23;20009;-59
2023/09/17 13:55:35;;;;;;;44.80;33.05;;;19.00;99.90;;;;;;25589511;23;20475;-59
2023/09/17 14:05:37;;;;;;;41.47;31.17;;;18.90;99.90;;;;;;25588899;23;20008;-58
2023/09/17 14:15:41;;;;;;;45.45;33.65;;;18.90;99.90;;;;;;25562570;23;20036;-59
2023/09/17 14:25:43;;;;;;;41.47;31.48;;;18.60;99.90;;;;;;25587838;23;20325;-59
2023/09/17 14:35:45;;;;;;;42.50;32.20;;;18.60;99.90;;;;;;25588140;23;20120;-59
2023/09/17 14:45:47;;;;;;;45.55;32.88;;;18.50;99.90;;;;;;25587635;23;20009;-59
2023/09/17 14:55:48;;;;;;;40.35;31.40;;;18.30;99.90;;;;;;25586035;23;20012;-53
2023/09/17 15:05:50;;;;;;;40.22;31.40;;;18.40;99.90;;;;;;25587570;23;20005;-59
2023/09/17 15:15:54;;;;;;;41.50;32.88;;;18.40;99.90;;;;;;25330190;23;20077;-59
2023/09/17 15:25:55;;;;;;;44.08;32.00;;;18.20;99.90;;;;;;25330069;23;20010;-59
2023/09/17 15:35:57;;;;;;;42.35;32.63;;;17.90;99.90;;;;;;25210004;23;20066;-55
2023/09/17 15:45:59;;;;;;;53.20;37.70;;;17.60;99.90;;;;;;25409982;23;20025;-58
2023/09/17 15:56:01;;;;;;;51.95;36.88;;;17.30;99.90;;;;;;25463733;23;20440;-53
2023/09/17 16:06:04;;;;;;;48.67;35.13;;;17.30;99.90;;;;;;25469863;23;20013;-58
2023/09/17 16:16:05;;;;;;;48.53;35.80;;;17.40;99.90;;;;;;25470382;23;20495;-59
2023/09/17 16:26:07;;;;;;;43.92;32.35;;;17.40;99.90;;;;;;25470258;23;20014;-58
2023/09/17 16:36:08;;;;;;;38.03;28.55;;;17.30;99.90;;;;;;25593191;23;20013;-58
2023/09/17 16:46:10;;;;;;;47.72;33.88;;;17.20;99.90;;;;;;25593758;23;20009;-58
2023/09/17 16:56:14;;;;;;;37.60;28.33;;;17.10;99.90;;;;;;25593115;23;20353;-58
2023/09/17 17:06:16;;;;;;;30.52;22.63;;;16.70;99.90;;;;;;25516193;23;20008;-53
2023/09/17 17:16:17;;;;;;;36.28;26.80;;;16.30;99.90;;;;;;25591585;23;20067;-58
2023/09/17 17:26:19;;;;;;;35.28;26.10;;;15.70;99.90;;;;;;25591520;23;20005;-52
2023/09/17 17:36:20;;;;;;;46.08;27.63;;;15.20;99.90;;;;;;25632644;23;20009;-58
2023/09/17 17:46:22;;;;;;;65.55;38.72;;;14.70;99.90;;;;;;25591165;23;20052;-58
2023/09/17 17:56:24;;;;;;;58.13;35.28;;;14.40;99.90;;;;;;25564003;23;20009;-50
2023/09/17 18:06:26;;;;;;;50.90;30.95;;;14.10;99.90;;;;;;25589894;23;20055;-58
2023/09/17 18:16:27;;;;;;;50.22;29.33;;;13.90;99.90;;;;;;25590951;23;20375;-58
2023/09/17 18:26:29;;;;;;;49.45;27.52;;;13.80;99.90;;;;;;25589603;23;20009;-58
2023/09/17 18:36:32;;;;;;;34.85;20.48;;;13.80;99.90;;;;;;25630773;23;20045;-58
2023/09/17 18:46:34;;;;;;;26.73;17.63;;;13.60;99.90;;;;;;25588597;23;20013;-58
2023/09/17 18:56:36;;;;;;;29.77;17.58;;;13.50;99.90;;;;;;25586719;23;20012;-58
2023/09/17 19:06:38;;;;;;;30.48;16.67;;;13.50;99.90;;;;;;25584788;23;20380;-59
2023/09/17 19:16:39;;;;;;;35.08;21.45;;;13.50;99.90;;;;;;25587952;23;20035;-59
2023/09/17 19:26:41;;;;;;;39.05;24.77;;;13.40;99.90;;;;;;25584660;23;20009;-59
2023/09/17 19:36:43;;;;;;;40.63;23.80;;;13.40;99.90;;;;;;25633022;23;20076;-59
2023/09/17 19:46:45;;;;;;;57.17;32.65;;;13.40;99.90;;;;;;25595060;23;20409;-59
2023/09/17 19:56:47;;;;;;;55.15;32.33;;;13.80;99.90;;;;;;25594792;23;20037;-59
2023/09/17 20:06:48;;;;;;;63.67;34.42;;;14.10;99.90;;;;;;25567801;23;20009;-59
2023/09/17 20:16:50;;;;;;;58.35;33.72;;;14.50;99.90;;;;;;25594643;23;20133;-59
2023/09/17 20:26:52;;;;;;;52.38;30.75;;;14.80;99.90;;;;;;25594203;23;20009;-54
2023/09/17 20:36:53;;;;;;;59.78;33.22;;;15.00;99.90;;;;;;25634775;23;20005;-59
2023/09/17 20:46:55;;;;;;;60.17;33.75;;;15.10;99.90;;;;;;25593102;23;20433;-59
2023/09/17 20:56:59;;;;;;;53.53;33.00;;;15.20;99.90;;;;;;25593042;23;20318;-59
2023/09/17 21:07:01;;;;;;;65.50;38.55;;;15.30;99.90;;;;;;25592613;23;20060;-59
2023/09/17 21:17:04;;;;;;;62.35;38.83;;;15.50;99.90;;;;;;25591990;23;20005;-59
2023/09/17 21:27:06;;;;;;;56.90;34.30;;;15.60;99.90;;;;;;25590285;23;20013;-60
2023/09/17 21:37:08;;;;;;;64.53;36.35;;;15.20;99.90;;;;;;25592764;23;20559;-59
2023/09/17 21:47:09;;;;;;;62.53;37.67;;;15.10;99.90;;;;;;25565026;23;20432;-59
2023/09/17 21:57:19;;;;;;;64.35;36.85;;;15.00;99.90;;;;;;25590435;23;20001;-59
2023/09/17 22:07:20;;;;;;;75.57;42.20;;;15.30;99.90;;;;;;25631341;23;20009;-56
2023/09/17 22:17:23;;;;;;;72.00;41.35;;;15.40;99.90;;;;;;25590093;23;20012;-57
2023/09/17 22:27:24;;;;;;;65.10;37.20;;;15.50;99.90;;;;;;25563269;23;20323;-54
2023/09/17 22:37:27;;;;;;;69.45;39.20;;;15.30;99.90;;;;;;25589230;23;20032;-59
2023/09/17 22:47:28;;;;;;;57.45;35.80;;;15.50;99.90;;;;;;25588757;23;20005;-54
2023/09/17 22:57:30;;;;;;;54.95;34.42;;;15.50;99.90;;;;;;25588585;23;20005;-55
2023/09/17 23:07:32;;;;;;;56.92;34.90;;;15.50;99.90;;;;;;25588233;23;20005;-60
2023/09/17 23:17:34;;;;;;;50.58;31.75;;;15.40;99.90;;;;;;25588406;23;20005;-56
2023/09/17 23:27:35;;;;;;;53.00;33.42;;;15.30;99.90;;;;;;25587619;22;20016;-60
2023/09/17 23:37:38;;;;;;;56.08;33.03;;;15.30;99.90;;;;;;25589589;23;20067;-60
2023/09/17 23:47:40;;;;;;;57.10;34.47;;;15.20;99.90;;;;;;25587909;23;20055;-60
2023/09/17 23:57:42;;;;;;;52.15;30.58;;;15.20;99.90;;;;;;25587754;23;20384;-54
